Time;durP1;ratioP1;P1;durP2;ratioP2;P2;SDS_P1;SDS_P2;PMS_P1;PMS_P2;Temp;Humidity;BMP_temperature;BMP_pressure;BME280_temperature;BME280_humidity;BME280_pressure;Samples;Min_cycle;Max_cycle;Signal;HPM_P1;HPM_P2
2022/01/11 00:01:55;;;;;;;0.10;0.10;;;;;;;-0.21;86.82;103114.09;5025269;28;20042;-75
2022/01/11 00:04:21;;;;;;;0.20;0.20;;;;;;;-0.19;86.99;103114.28;5031318;28;20025;-76
2022/01/11 00:06:49;;;;;;;0.20;0.20;;;;;;;-0.16;86.53;103105.22;5035873;28;20033;-74
2022/01/11 00:09:33;;;;;;;0.20;0.20;;;;;;;-0.23;86.68;103106.97;5039427;28;20393;-75
2022/01/11 00:11:59;;;;;;;0.20;0.20;;;;;;;-0.27;87.10;103105.72;5029696;28;20560;-74
2022/01/11 00:14:25;;;;;;;0.30;0.30;;;;;;;-0.28;87.06;103112.53;5036701;28;20406;-75
2022/01/11 00:16:50;;;;;;;0.10;0.10;;;;;;;-0.30;86.96;103128.56;5040079;28;20025;-76
2022/01/11 00:19:15;;;;;;;0.10;0.10;;;;;;;-0.31;86.97;103139.63;5039811;28;20292;-75
2022/01/11 00:21:45;;;;;;;0.20;0.20;;;;;;;-0.33;87.13;103135.94;5031024;28;20044;-74
2022/01/11 00:27:03;;;;;;;0.10;0.10;;;;;;;-0.36;86.77;103136.53;5040221;28;20263;-75
2022/01/11 00:29:30;;;;;;;0.20;0.20;;;;;;;-0.34;87.24;103137.63;5039175;28;20610;-74
2022/01/11 00:31:59;;;;;;;0.13;0.13;;;;;;;-0.33;87.05;103139.44;5041131;28;20276;-75
2022/01/11 00:34:28;;;;;;;0.13;0.13;;;;;;;-0.33;87.33;103143.66;5038751;28;20315;-75
2022/01/11 00:36:53;;;;;;;0.10;0.10;;;;;;;-0.31;87.07;103144.75;5055465;28;20299;-75
2022/01/11 00:39:18;;;;;;;0.17;0.17;;;;;;;-0.31;87.26;103147.34;5039776;28;20674;-74
2022/01/11 00:41:44;;;;;;;0.10;0.10;;;;;;;-0.28;87.45;103139.94;5037983;28;20033;-75
2022/01/11 00:44:10;;;;;;;0.10;0.10;;;;;;;-0.28;87.27;103138.28;5039357;28;20112;-74
2022/01/11 00:46:36;;;;;;;0.20;0.20;;;;;;;-0.25;87.25;103136.78;5038950;28;20387;-74
2022/01/11 00:49:02;;;;;;;0.20;0.20;;;;;;;-0.29;87.14;103139.00;5037836;28;20284;-75
2022/01/11 00:51:28;;;;;;;0.20;0.20;;;;;;;-0.31;87.14;103135.34;5033133;28;20080;-76
2022/01/11 00:53:54;;;;;;;0.20;0.20;;;;;;;-0.24;87.23;103146.34;5029561;28;20275;-76
2022/01/11 00:56:21;;;;;;;0.10;0.10;;;;;;;-0.29;86.81;103151.88;5035081;28;20029;-77
2022/01/11 00:58:47;;;;;;;0.10;0.10;;;;;;;-0.30;87.04;103152.63;5042514;28;20158;-75
2022/01/11 01:01:13;;;;;;;0.10;0.10;;;;;;;-0.29;87.28;103145.84;5048198;28;20363;-75
2022/01/11 01:03:39;;;;;;;0.20;0.20;;;;;;;-0.30;87.51;103142.34;5018658;28;20037;-74
2022/01/11 01:06:05;;;;;;;0.10;0.10;;;;;;;-0.25;87.26;103148.00;5030137;28;20311;-75
2022/01/11 01:08:31;;;;;;;0.13;0.13;;;;;;;-0.26;87.09;103143.59;5038682;28;20446;-76
2022/01/11 01:10:56;;;;;;;0.20;0.20;;;;;;;-0.24;87.17;103144.69;5038275;28;20331;-75
2022/01/11 01:13:25;;;;;;;0.20;0.20;;;;;;;-0.21;87.16;103146.66;5039441;28;20071;-75
2022/01/11 01:15:54;;;;;;;0.20;0.20;;;;;;;-0.24;87.23;103144.69;5038560;28;20029;-76
2022/01/11 01:18:23;;;;;;;0.10;0.10;;;;;;;-0.22;87.33;103147.41;5011173;28;20290;-75
2022/01/11 01:20:50;;;;;;;0.10;0.10;;;;;;;-0.21;87.40;103144.09;5029440;28;20272;-74
2022/01/11 01:23:16;;;;;;;0.10;0.10;;;;;;;-0.20;87.24;103140.75;5021594;28;20302;-75
2022/01/11 01:25:43;;;;;;;0.10;0.10;;;;;;;-0.21;87.32;103137.28;5039907;28;20865;-74
2022/01/11 01:28:09;;;;;;;0.70;0.70;;;;;;;-0.15;87.16;103142.19;5039518;28;20037;-76
2022/01/11 01:30:36;;;;;;;0.20;0.20;;;;;;;-0.15;87.08;103152.50;5038708;28;20575;-76
2022/01/11 01:33:02;;;;;;;0.10;0.10;;;;;;;-0.17;87.07;103156.56;5004731;28;20391;-74
2022/01/11 01:35:33;;;;;;;0.30;0.30;;;;;;;-0.16;87.05;103154.16;5003053;28;20644;-75
2022/01/11 01:37:58;;;;;;;0.20;0.20;;;;;;;-0.11;87.16;103158.88;5020558;28;20655;-75
2022/01/11 01:40:24;;;;;;;0.40;0.40;;;;;;;-0.14;87.07;103156.88;5019660;28;20280;-75
2022/01/11 01:42:51;;;;;;;0.10;0.10;;;;;;;-0.11;87.46;103148.59;5017520;28;20068;-74
2022/01/11 01:45:17;;;;;;;0.20;0.20;;;;;;;-0.11;87.31;103154.66;5038580;28;20056;-74
2022/01/11 01:47:43;;;;;;;0.20;0.20;;;;;;;-0.08;87.16;103148.91;5038407;28;20284;-77
2022/01/11 01:50:09;;;;;;;0.10;0.10;;;;;;;-0.09;87.05;103153.16;5039903;28;20370;-76
2022/01/11 01:52:35;;;;;;;0.17;0.17;;;;;;;-0.09;87.17;103157.38;5038879;28;20047;-75
2022/01/11 01:55:01;;;;;;;0.20;0.20;;;;;;;-0.07;86.88;103158.50;5039155;28;20276;-75
2022/01/11 01:57:26;;;;;;;0.17;0.17;;;;;;;-0.10;86.57;103164.22;5040159;28;20346;-74
2022/01/11 01:59:52;;;;;;;0.13;0.13;;;;;;;-0.08;86.38;103164.38;5039536;28;20025;-74
2022/01/11 02:02:18;;;;;;;0.20;0.20;;;;;;;-0.09;86.83;103162.53;5027917;28;20319;-75
2022/01/11 02:04:45;;;;;;;0.20;0.20;;;;;;;-0.03;86.99;103161.56;5018954;28;20112;-75
2022/01/11 02:07:10;;;;;;;0.20;0.20;;;;;;;-0.04;86.79;103159.75;5038691;28;20283;-75
2022/01/11 02:09:36;;;;;;;0.30;0.30;;;;;;;0.03;86.60;103155.22;5037822;28;20296;-75
2022/01/11 02:12:01;;;;;;;0.10;0.10;;;;;;;-0.04;86.43;103154.59;5002209;28;20140;-74
2022/01/11 02:14:27;;;;;;;0.10;0.10;;;;;;;-0.07;86.53;103161.06;5018005;28;20040;-75
2022/01/11 02:16:53;;;;;;;0.20;0.20;;;;;;;-0.05;86.85;103163.03;5019318;28;20044;-74
2022/01/11 02:19:21;;;;;;;0.20;0.20;;;;;;;-0.03;86.91;103178.66;5034534;28;20104;-76
2022/01/11 02:21:46;;;;;;;0.20;0.20;;;;;;;-0.02;86.85;103181.44;5038826;28;20272;-75
2022/01/11 02:24:12;;;;;;;0.17;0.17;;;;;;;-0.03;86.56;103181.25;5038638;28;20499;-76
2022/01/11 02:26:37;;;;;;;0.17;0.17;;;;;;;-0.03;86.63;103186.41;5038823;28;20033;-75
2022/01/11 02:29:03;;;;;;;0.20;0.20;;;;;;;-0.04;86.86;103189.72;5027630;28;20041;-75
2022/01/11 02:31:28;;;;;;;0.53;0.53;;;;;;;-0.04;87.16;103187.16;5018167;28;20040;-75
2022/01/11 02:33:57;;;;;;;0.20;0.20;;;;;;;-0.01;87.05;103177.16;5018354;28;20033;-75
2022/01/11 02:36:30;;;;;;;0.30;0.30;;;;;;;-0.01;87.16;103172.03;5019261;28;20033;-74
2022/01/11 02:38:56;;;;;;;0.20;0.20;;;;;;;0.03;86.89;103181.00;5038601;28;20303;-75
2022/01/11 02:41:22;;;;;;;0.20;0.20;;;;;;;0.01;87.01;103172.19;5037755;28;20382;-74
2022/01/11 02:43:48;;;;;;;0.20;0.20;;;;;;;-0.02;86.83;103175.34;5038292;28;20682;-74
2022/01/11 02:46:16;;;;;;;0.10;0.10;;;;;;;-0.02;86.73;103172.78;5037825;28;20053;-77
2022/01/11 02:48:41;;;;;;;0.20;0.20;;;;;;;0.03;87.02;103181.00;5018675;28;20293;-75
2022/01/11 02:51:07;;;;;;;0.20;0.20;;;;;;;0.01;86.77;103174.78;5018443;28;20387;-75
2022/01/11 02:53:39;;;;;;;0.27;0.27;;;;;;;0.02;86.36;103176.59;5017927;28;20340;-75
2022/01/11 02:56:04;;;;;;;0.10;0.10;;;;;;;0.03;86.94;103175.84;5018060;28;20392;-76
2022/01/11 02:58:30;;;;;;;0.20;0.20;;;;;;;0.08;86.64;103178.19;5034226;28;20375;-75
2022/01/11 03:00:55;;;;;;;0.10;0.10;;;;;;;0.06;86.67;103182.25;5038526;28;20076;-76
2022/01/11 03:03:22;;;;;;;0.20;0.20;;;;;;;0.05;86.63;103187.25;5037682;28;20303;-76
2022/01/11 03:05:52;;;;;;;0.20;0.20;;;;;;;0.05;86.75;103187.25;5037472;28;20021;-76
2022/01/11 03:08:18;;;;;;;0.10;0.10;;;;;;;0.09;86.57;103194.56;5036569;28;20342;-77
2022/01/11 03:10:45;;;;;;;0.17;0.17;;;;;;;0.08;86.71;103203.03;5037450;28;20412;-76
2022/01/11 03:13:11;;;;;;;0.37;0.37;;;;;;;0.11;86.51;103205.94;5037964;28;20371;-75
2022/01/11 03:15:38;;;;;;;0.30;0.30;;;;;;;0.13;86.36;103207.03;5037848;28;20698;-75
2022/01/11 03:18:04;;;;;;;0.73;0.73;;;;;;;0.10;86.58;103202.47;5024666;28;20029;-75
2022/01/11 03:20:33;;;;;;;0.10;0.10;;;;;;;0.08;86.56;103208.19;5017925;28;20288;-75
2022/01/11 03:22:59;;;;;;;0.20;0.20;;;;;;;0.07;86.71;103201.22;5018451;28;20610;-75
2022/01/11 03:25:25;;;;;;;0.33;0.33;;;;;;;0.08;86.99;103198.81;5017962;28;20725;-76
2022/01/11 03:27:50;;;;;;;0.20;0.20;;;;;;;0.11;86.82;103195.63;5029702;28;20059;-74
2022/01/11 03:30:16;;;;;;;0.10;0.10;;;;;;;0.12;86.85;103193.22;5036379;28;20025;-75
2022/01/11 03:32:41;;;;;;;0.23;0.23;;;;;;;0.11;86.66;103196.56;5036840;28;20029;-74
2022/01/11 03:35:08;;;;;;;0.20;0.20;;;;;;;0.12;86.79;103200.97;5041043;28;20031;-73
2022/01/11 03:37:34;;;;;;;0.10;0.10;;;;;;;0.10;86.75;103194.72;5045781;28;20044;-74
2022/01/11 03:40:00;;;;;;;0.10;0.10;;;;;;;0.16;86.80;103201.28;5048497;28;20264;-77
2022/01/11 03:42:26;;;;;;;0.10;0.10;;;;;;;0.14;86.50;103203.72;5047599;28;20280;-74
2022/01/11 03:44:52;;;;;;;0.57;0.57;;;;;;;0.13;86.41;103196.72;5046885;28;20648;-77
2022/01/11 03:47:18;;;;;;;0.10;0.10;;;;;;;0.13;86.36;103195.06;5044657;28;20038;-73
2022/01/11 03:49:43;;;;;;;0.10;0.10;;;;;;;0.10;85.97;103186.06;5040741;28;20025;-76
2022/01/11 03:52:09;;;;;;;0.37;0.37;;;;;;;0.08;86.74;103180.78;5022187;28;20356;-77
2022/01/11 03:55:02;;;;;;;0.10;0.10;;;;;;;0.05;86.74;103180.41;5019323;28;20030;-77
2022/01/11 03:57:28;;;;;;;0.20;0.20;;;;;;;0.07;86.98;103176.34;5017521;28;20388;-75
2022/01/11 03:59:55;;;;;;;0.20;0.20;;;;;;;0.05;86.90;103170.13;5018313;28;20782;-76
2022/01/11 04:02:21;;;;;;;0.20;0.20;;;;;;;0.00;86.65;103171.31;5019434;28;20288;-73
2022/01/11 04:04:52;;;;;;;0.10;0.10;;;;;;;0.01;86.56;103172.19;5037176;28;20311;-75
2022/01/11 04:07:23;;;;;;;0.20;0.20;;;;;;;-0.08;86.80;103177.25;5017886;28;20284;-76
2022/01/11 04:09:49;;;;;;;0.13;0.13;;;;;;;-0.12;87.03;103177.69;5000570;28;20301;-76
2022/01/11 04:12:15;;;;;;;0.20;0.20;;;;;;;-0.16;87.24;103181.56;5035021;28;20701;-77
2022/01/11 04:14:40;;;;;;;0.10;0.10;;;;;;;-0.21;87.36;103183.66;5037100;28;20350;-75
2022/01/11 04:17:06;;;;;;;0.10;0.10;;;;;;;-0.23;86.85;103186.78;5037267;28;20029;-76
2022/01/11 04:19:31;;;;;;;0.17;0.17;;;;;;;-0.26;87.59;103186.47;5036283;28;20300;-76
2022/01/11 04:21:57;;;;;;;0.10;0.10;;;;;;;-0.24;87.33;103187.53;5020408;28;20061;-76
2022/01/11 04:24:23;;;;;;;0.30;0.30;;;;;;;-0.22;87.29;103188.63;5017288;28;20109;-76
2022/01/11 04:26:49;;;;;;;0.30;0.30;;;;;;;-0.11;86.66;103193.31;5017299;28;20713;-76
2022/01/11 04:29:14;;;;;;;1.03;0.93;;;;;;;-0.19;86.98;103199.28;5016677;28;20285;-76
2022/01/11 04:31:40;;;;;;;0.10;0.10;;;;;;;-0.20;86.82;103200.00;5029525;28;20398;-75
2022/01/11 04:34:06;;;;;;;0.20;0.20;;;;;;;-0.28;86.92;103197.53;5035800;28;20411;-75
2022/01/11 04:36:33;;;;;;;0.13;0.13;;;;;;;-0.29;87.16;103187.94;5036477;28;20283;-75
2022/01/11 04:38:59;;;;;;;0.70;0.70;;;;;;;-0.30;87.17;103188.69;5036213;28;20034;-76
2022/01/11 04:41:25;;;;;;;0.20;0.20;;;;;;;-0.28;87.05;103184.66;5025920;28;20308;-75
2022/01/11 04:43:50;;;;;;;0.10;0.10;;;;;;;-0.32;87.36;103187.63;5016737;28;20312;-74
2022/01/11 04:46:18;;;;;;;0.10;0.10;;;;;;;-0.34;87.40;103199.41;5017588;28;20112;-76
2022/01/11 04:48:45;;;;;;;0.13;0.13;;;;;;;-0.31;87.57;103192.00;5016711;28;20026;-76
2022/01/11 04:51:10;;;;;;;0.10;0.10;;;;;;;-0.26;87.28;103200.25;5025861;28;20284;-77
2022/01/11 04:53:36;;;;;;;0.10;0.10;;;;;;;-0.24;87.29;103195.28;5036685;28;20291;-74
2022/01/11 04:56:01;;;;;;;0.13;0.13;;;;;;;-0.18;87.33;103196.84;5039507;28;20037;-75
2022/01/11 04:58:27;;;;;;;0.10;0.10;;;;;;;-0.16;86.90;103197.97;5039557;28;20021;-76
2022/01/11 05:00:52;;;;;;;0.10;0.10;;;;;;;-0.18;86.54;103186.53;5039473;28;20088;-76
2022/01/11 05:03:20;;;;;;;0.23;0.23;;;;;;;-0.18;86.84;103191.69;5039836;28;20380;-76
2022/01/11 05:05:46;;;;;;;0.30;0.30;;;;;;;-0.15;86.63;103199.78;5040081;28;20199;-74
2022/01/11 05:08:12;;;;;;;0.17;0.17;;;;;;;-0.17;86.85;103196.09;5040295;28;20303;-76
2022/01/11 05:10:42;;;;;;;0.13;0.13;;;;;;;-0.14;86.74;103205.81;5038734;28;20044;-75
2022/01/11 05:13:15;;;;;;;0.10;0.10;;;;;;;-0.16;86.87;103195.38;5023141;28;20022;-75
2022/01/11 05:15:41;;;;;;;0.20;0.20;;;;;;;-0.19;86.98;103194.13;5039951;28;20280;-75
2022/01/11 05:18:08;;;;;;;0.10;0.10;;;;;;;-0.17;86.88;103195.19;5039776;28;20275;-76
2022/01/11 05:20:34;;;;;;;0.20;0.20;;;;;;;-0.22;86.72;103192.13;5036512;28;20025;-76
2022/01/11 05:23:00;;;;;;;0.20;0.20;;;;;;;-0.25;86.71;103190.88;5019336;28;20273;-75
2022/01/11 05:25:25;;;;;;;0.10;0.10;;;;;;;-0.30;87.08;103195.50;5019326;28;20285;-75
2022/01/11 05:27:51;;;;;;;0.10;0.10;;;;;;;-0.34;87.17;103201.06;5038226;28;20081;-75
2022/01/11 05:30:17;;;;;;;0.20;0.20;;;;;;;-0.32;87.45;103200.50;5038928;28;20111;-77
2022/01/11 05:32:43;;;;;;;0.20;0.20;;;;;;;-0.23;87.17;103197.09;5039114;28;20053;-75
2022/01/11 05:35:10;;;;;;;0.10;0.10;;;;;;;-0.23;86.77;103191.94;5039049;28;20307;-75
2022/01/11 05:37:35;;;;;;;0.17;0.17;;;;;;;-0.25;86.80;103201.16;5022318;28;20112;-74
2022/01/11 05:40:01;;;;;;;0.10;0.10;;;;;;;-0.23;86.86;103191.94;5019088;28;20359;-74
2022/01/11 05:42:27;;;;;;;0.10;0.10;;;;;;;-0.27;86.75;103193.28;5019417;28;20022;-75
2022/01/11 05:44:53;;;;;;;0.13;0.13;;;;;;;-0.26;87.29;103204.50;5019480;28;20342;-75
2022/01/11 05:47:19;;;;;;;0.13;0.13;;;;;;;-0.21;87.45;103216.19;5032984;28;20296;-75
2022/01/11 05:49:45;;;;;;;0.10;0.10;;;;;;;-0.13;86.99;103207.66;5039124;28;20029;-75
2022/01/11 05:52:10;;;;;;;0.13;0.13;;;;;;;-0.10;87.02;103213.16;5039582;28;20329;-75
2022/01/11 05:54:35;;;;;;;0.10;0.10;;;;;;;-0.04;86.65;103207.75;5038084;28;20026;-75
2022/01/11 05:57:01;;;;;;;0.13;0.13;;;;;;;-0.10;86.35;103219.97;5028825;28;20036;-75
2022/01/11 05:59:27;;;;;;;0.17;0.17;;;;;;;-0.12;86.56;103211.16;5030300;28;20459;-75
2022/01/11 06:01:52;;;;;;;0.20;0.20;;;;;;;-0.16;87.09;103210.84;5029972;28;20038;-74
2022/01/11 06:04:18;;;;;;;0.20;0.20;;;;;;;-0.13;86.96;103214.50;5031774;28;20269;-76
2022/01/11 06:06:43;;;;;;;0.10;0.10;;;;;;;-0.07;86.69;103213.50;5024385;28;20030;-75
2022/01/11 06:09:09;;;;;;;0.10;0.10;;;;;;;-0.12;86.56;103209.50;5019187;28;20018;-75
2022/01/11 06:11:34;;;;;;;0.70;0.70;;;;;;;-0.18;86.76;103212.31;5018088;28;20026;-74
2022/01/11 06:14:00;;;;;;;0.20;0.20;;;;;;;-0.22;86.99;103217.88;5019536;28;20034;-74
2022/01/11 06:16:25;;;;;;;0.10;0.10;;;;;;;-0.23;87.07;103210.91;5031180;28;20044;-74
2022/01/11 06:18:51;;;;;;;0.10;0.10;;;;;;;-0.23;87.05;103225.44;5027430;28;20257;-73
2022/01/11 06:21:17;;;;;;;0.40;0.40;;;;;;;-0.23;87.22;103233.16;5028555;28;20025;-74
2022/01/11 06:23:42;;;;;;;0.10;0.10;;;;;;;-0.26;87.01;103225.09;5024712;28;20144;-72
2022/01/11 06:26:08;;;;;;;0.30;0.30;;;;;;;-0.29;86.92;103228.25;5023226;28;20095;-74
2022/01/11 06:28:33;;;;;;;0.20;0.20;;;;;;;-0.34;87.06;103229.38;5012753;28;20022;-74
2022/01/11 06:31:02;;;;;;;0.10;0.10;;;;;;;-0.39;87.15;103231.44;5026772;28;20092;-74
2022/01/11 06:33:28;;;;;;;0.10;0.10;;;;;;;-0.43;87.08;103231.88;5028038;28;20086;-72
2022/01/11 06:35:53;;;;;;;0.10;0.10;;;;;;;-0.41;87.13;103232.94;5027452;28;20275;-74
2022/01/11 06:38:21;;;;;;;0.13;0.13;;;;;;;-0.43;87.56;103247.31;5028934;28;20037;-74
2022/01/11 06:40:47;;;;;;;0.10;0.10;;;;;;;-0.43;88.11;103249.91;5027652;28;20025;-74
2022/01/11 06:43:15;;;;;;;0.20;0.20;;;;;;;-0.41;87.66;103250.97;5029934;28;20287;-74
2022/01/11 06:45:42;;;;;;;0.20;0.20;;;;;;;-0.43;87.89;103261.09;5023677;28;20025;-73
2022/01/11 06:48:08;;;;;;;0.20;0.20;;;;;;;-0.35;87.92;103261.03;5012647;28;20299;-74
2022/01/11 06:50:34;;;;;;;0.13;0.13;;;;;;;-0.30;87.80;103254.75;5009084;28;20292;-74
2022/01/11 06:52:59;;;;;;;0.20;0.20;;;;;;;-0.28;88.07;103255.81;5024058;28;20535;-74
2022/01/11 06:55:25;;;;;;;0.20;0.20;;;;;;;-0.26;87.63;103256.00;5022123;28;20041;-73
2022/01/11 06:57:54;;;;;;;0.13;0.13;;;;;;;-0.20;87.35;103254.09;5018571;28;20033;-74
2022/01/11 07:00:20;;;;;;;0.10;0.10;;;;;;;-0.15;87.26;103251.31;5011117;28;20033;-74
2022/01/11 07:02:49;;;;;;;0.10;0.10;;;;;;;-0.12;86.79;103255.88;5037625;28;20283;-74
2022/01/11 07:05:16;;;;;;;0.10;0.10;;;;;;;-0.11;87.20;103261.94;5037562;28;20036;-74
2022/01/11 07:07:41;;;;;;;0.10;0.10;;;;;;;-0.14;87.31;103262.50;5037133;28;20543;-74
2022/01/11 07:10:06;;;;;;;0.10;0.10;;;;;;;-0.13;86.81;103263.44;5037228;28;20314;-74
2022/01/11 07:12:32;;;;;;;0.30;0.30;;;;;;;-0.14;86.98;103262.50;5027510;28;20123;-73
2022/01/11 07:14:58;;;;;;;0.20;0.20;;;;;;;-0.14;87.09;103262.50;5018126;28;20037;-74
2022/01/11 07:17:25;;;;;;;0.30;0.30;;;;;;;-0.10;87.03;103263.75;5025658;28;20022;-74
2022/01/11 07:19:50;;;;;;;0.20;0.20;;;;;;;-0.13;86.96;103271.16;5037429;28;20371;-73
2022/01/11 07:22:16;;;;;;;0.10;0.10;;;;;;;-0.16;86.81;103277.81;5036510;28;20268;-75
2022/01/11 07:24:41;;;;;;;0.20;0.20;;;;;;;-0.17;86.55;103285.34;5036505;28;20116;-73
2022/01/11 07:27:06;;;;;;;0.13;0.13;;;;;;;-0.20;87.00;103285.00;5037119;28;20031;-73
2022/01/11 07:29:32;;;;;;;0.10;0.10;;;;;;;-0.19;87.06;103292.00;5037216;28;20072;-73
2022/01/11 07:31:57;;;;;;;0.10;0.10;;;;;;;-0.23;86.93;103294.97;5037659;28;20307;-73
2022/01/11 07:34:23;;;;;;;0.10;0.10;;;;;;;-0.26;86.96;103294.63;5037014;28;20114;-73
2022/01/11 07:36:48;;;;;;;0.20;0.20;;;;;;;-0.29;87.22;103293.53;5036832;28;20036;-74
2022/01/11 07:39:14;;;;;;;0.20;0.20;;;;;;;-0.29;87.41;103293.53;5037423;28;20043;-74
2022/01/11 07:41:40;;;;;;;0.20;0.20;;;;;;;-0.31;87.31;103288.97;5036523;28;20021;-74
2022/01/11 07:44:06;;;;;;;0.27;0.27;;;;;;;-0.35;87.23;103282.56;5053170;28;20086;-74
2022/01/11 07:46:32;;;;;;;0.20;0.20;;;;;;;-0.32;87.28;103289.72;5036937;28;20299;-74
2022/01/11 07:48:59;;;;;;;0.10;0.10;;;;;;;-0.36;87.28;103295.25;5028190;28;20023;-74
2022/01/11 07:51:25;;;;;;;0.20;0.20;;;;;;;-0.34;87.07;103298.91;5017147;28;20296;-74
2022/01/11 07:53:52;;;;;;;0.20;0.20;;;;;;;-0.32;87.20;103300.03;5017737;28;20269;-74
2022/01/11 07:56:18;;;;;;;0.20;0.20;;;;;;;-0.36;87.05;103298.75;5017561;28;20278;-74
2022/01/11 07:58:43;;;;;;;0.13;0.13;;;;;;;-0.34;87.05;103307.56;5017320;28;20351;-73
2022/01/11 08:01:08;;;;;;;0.10;0.10;;;;;;;-0.30;87.08;103302.00;5017983;28;20032;-74
2022/01/11 08:03:34;;;;;;;0.20;0.20;;;;;;;-0.34;86.62;103299.84;5015718;28;20038;-74
2022/01/11 08:05:59;;;;;;;0.20;0.20;;;;;;;-0.36;86.89;103302.97;5027468;28;20295;-75
2022/01/11 08:08:25;;;;;;;0.20;0.20;;;;;;;-0.34;86.49;103309.22;5037910;28;20033;-74
2022/01/11 08:10:50;;;;;;;0.10;0.10;;;;;;;-0.36;86.97;103301.34;5037138;28;20037;-74
2022/01/11 08:13:16;;;;;;;0.20;0.20;;;;;;;-0.38;86.99;103310.53;5037602;28;20095;-75
2022/01/11 08:15:41;;;;;;;0.10;0.10;;;;;;;-0.29;86.44;103313.22;5016362;28;20109;-75
2022/01/11 08:18:08;;;;;;;0.20;0.20;;;;;;;-0.29;86.40;103313.22;5033688;28;20318;-75
2022/01/11 08:20:34;;;;;;;0.10;0.10;;;;;;;-0.28;86.41;103313.41;5038630;28;20029;-74
2022/01/11 08:22:59;;;;;;;0.20;0.20;;;;;;;-0.32;86.27;103324.09;5037819;28;20355;-73
2022/01/11 08:25:25;;;;;;;0.10;0.10;;;;;;;-0.37;86.42;103317.50;5037945;28;20025;-74
2022/01/11 08:27:51;;;;;;;0.10;0.10;;;;;;;-0.34;86.33;103324.66;5018320;28;20049;-74
2022/01/11 08:30:17;;;;;;;0.30;0.30;;;;;;;-0.38;86.39;103328.53;5022423;28;20289;-74
2022/01/11 08:32:43;;;;;;;0.30;0.30;;;;;;;-0.39;86.38;103326.72;5022049;28;20034;-74
2022/01/11 08:35:09;;;;;;;0.10;0.10;;;;;;;-0.35;86.52;103326.34;5026628;28;20109;-73
2022/01/11 08:37:34;;;;;;;0.10;0.10;;;;;;;-0.39;86.48;103324.16;5020673;28;20407;-74
2022/01/11 08:40:00;;;;;;;0.10;0.10;;;;;;;-0.41;86.68;103328.22;5022812;28;20086;-74
2022/01/11 08:42:27;;;;;;;0.23;0.23;;;;;;;-0.37;86.64;103325.22;5045367;28;20340;-74
2022/01/11 08:44:53;;;;;;;0.20;0.20;;;;;;;-0.36;86.35;103324.50;5043816;28;20032;-74
2022/01/11 08:47:24;;;;;;;1.07;1.07;;;;;;;-0.38;86.59;103323.41;5043146;28;20291;-74
2022/01/11 08:49:50;;;;;;;0.20;0.20;;;;;;;-0.35;86.44;103325.41;5059519;28;20405;-73
2022/01/11 08:52:15;;;;;;;0.20;0.20;;;;;;;-0.36;86.58;103326.16;5056309;28;20314;-76
2022/01/11 08:54:41;;;;;;;0.20;0.20;;;;;;;-0.39;86.68;103323.25;5040139;28;20382;-73
2022/01/11 08:57:06;;;;;;;0.20;0.20;;;;;;;-0.32;86.55;103318.06;5041181;28;20091;-76
2022/01/11 08:59:32;;;;;;;0.10;0.10;;;;;;;-0.29;86.22;103320.97;5041613;28;20044;-74
2022/01/11 09:01:59;;;;;;;0.13;0.13;;;;;;;-0.31;86.21;103320.78;5041439;28;20119;-76
2022/01/11 09:04:26;;;;;;;0.10;0.10;;;;;;;-0.32;85.82;103328.34;5042635;28;20030;-75
2022/01/11 09:06:53;;;;;;;0.23;0.23;;;;;;;-0.33;86.40;103336.78;5040675;28;20294;-73
2022/01/11 09:09:19;;;;;;;0.20;0.20;;;;;;;-0.35;86.78;103339.22;5041426;28;20532;-75
2022/01/11 09:11:45;;;;;;;0.10;0.10;;;;;;;-0.29;86.32;103342.44;5041442;28;20298;-74
2022/01/11 09:14:11;;;;;;;0.20;0.20;;;;;;;-0.29;86.05;103347.59;5040587;28;20376;-75
2022/01/11 09:16:36;;;;;;;0.20;0.20;;;;;;;-0.30;86.15;103345.78;5040513;28;20025;-75
2022/01/11 09:19:03;;;;;;;0.30;0.30;;;;;;;-0.28;86.32;103358.84;5039941;28;20359;-74
2022/01/11 09:21:30;;;;;;;0.30;0.30;;;;;;;-0.28;86.40;103351.09;5039630;28;20052;-75
2022/01/11 09:23:56;;;;;;;0.20;0.20;;;;;;;-0.29;86.22;103347.59;5040454;28;20276;-75
2022/01/11 09:26:21;;;;;;;0.30;0.30;;;;;;;-0.29;86.31;103339.88;5041058;28;20583;-74
2022/01/11 09:28:46;;;;;;;0.23;0.23;;;;;;;-0.21;86.17;103338.19;5041592;28;20025;-75
2022/01/11 09:31:16;;;;;;;0.20;0.20;;;;;;;-0.20;86.17;103347.75;5040634;28;20033;-74
2022/01/11 09:33:41;;;;;;;0.20;0.20;;;;;;;-0.20;86.12;103345.16;5043784;28;20021;-75
2022/01/11 09:36:07;;;;;;;0.20;0.20;;;;;;;-0.20;85.92;103341.66;5043651;28;20300;-75
2022/01/11 09:38:32;;;;;;;0.20;0.20;;;;;;;-0.13;86.25;103344.19;5041908;28;20060;-74
2022/01/11 09:40:58;;;;;;;0.17;0.17;;;;;;;0.03;86.04;103345.91;5038991;28;20392;-74
2022/01/11 09:43:27;;;;;;;0.20;0.20;;;;;;;0.18;85.84;103352.75;5040685;28;20041;-74
2022/01/11 09:45:53;;;;;;;0.20;0.20;;;;;;;0.42;84.76;103353.63;5041073;28;20283;-74
2022/01/11 09:48:28;;;;;;;0.20;0.20;;;;;;;0.56;84.19;103344.81;5039628;28;20288;-75
2022/01/11 09:50:54;;;;;;;0.20;0.20;;;;;;;0.69;83.48;103347.13;5040374;28;20330;-74
2022/01/11 09:53:19;;;;;;;0.20;0.20;;;;;;;0.89;82.79;103353.50;5040454;28;20275;-75
2022/01/11 09:55:45;;;;;;;0.20;0.20;;;;;;;0.99;82.17;103350.25;5038971;28;20273;-76
2022/01/11 09:58:12;;;;;;;0.20;0.20;;;;;;;1.05;82.12;103346.66;5038870;28;20026;-75
2022/01/11 10:00:39;;;;;;;0.20;0.20;;;;;;;1.20;81.30;103338.72;5039266;28;20601;-76
2022/01/11 10:03:06;;;;;;;0.20;0.20;;;;;;;1.35;80.34;103339.44;5038114;28;20288;-75
2022/01/11 10:05:33;;;;;;;0.23;0.23;;;;;;;1.41;80.74;103344.34;5038699;28;20284;-74
2022/01/11 10:07:58;;;;;;;0.20;0.20;;;;;;;1.49;79.87;103344.41;5039633;28;20374;-75
2022/01/11 10:10:26;;;;;;;0.30;0.30;;;;;;;1.60;79.69;103345.53;5038975;28;20367;-73
2022/01/11 10:12:58;;;;;;;0.87;0.87;;;;;;;1.78;79.02;103335.28;5030532;28;20124;-75
2022/01/11 10:15:27;;;;;;;0.30;0.30;;;;;;;1.93;78.01;103348.88;5030934;28;20372;-76
2022/01/11 10:17:53;;;;;;;0.30;0.30;;;;;;;2.04;76.95;103358.69;5038749;28;20287;-74
2022/01/11 10:20:21;;;;;;;0.20;0.20;;;;;;;2.22;76.55;103363.91;5037596;28;20091;-75
2022/01/11 10:22:56;;;;;;;0.50;0.50;;;;;;;2.38;76.31;103361.25;5038132;28;20041;-77
2022/01/11 10:25:22;;;;;;;0.40;0.40;;;;;;;2.51;75.75;103362.47;5029255;28;20101;-75
2022/01/11 10:27:55;;;;;;;0.40;0.40;;;;;;;2.55;75.40;103369.81;5018073;28;20369;-76
2022/01/11 10:30:23;;;;;;;0.40;0.40;;;;;;;2.63;74.73;103373.16;5035662;28;20044;-76
2022/01/11 10:32:50;;;;;;;0.40;0.40;;;;;;;2.68;74.96;103367.69;5037994;28;20033;-73
2022/01/11 10:35:25;;;;;;;0.30;0.30;;;;;;;2.80;74.15;103380.06;5037865;28;20063;-75
2022/01/11 10:37:53;;;;;;;0.40;0.40;;;;;;;2.93;73.51;103387.38;5038294;28;20032;-74
2022/01/11 10:40:23;;;;;;;0.37;0.37;;;;;;;3.01;73.24;103384.78;5037929;28;20089;-73
2022/01/11 10:42:55;;;;;;;0.40;0.40;;;;;;;3.09;73.32;103382.97;5038164;28;20025;-73
2022/01/11 10:45:29;;;;;;;0.50;0.50;;;;;;;3.14;72.38;103379.19;5038478;28;20464;-73
2022/01/11 10:47:57;;;;;;;0.30;0.30;;;;;;;3.06;73.10;103382.69;5027353;28;20060;-73
2022/01/11 10:50:34;;;;;;;0.30;0.30;;;;;;;3.13;73.17;103372.16;5026078;28;20028;-74
2022/01/11 10:53:03;;;;;;;0.30;0.30;;;;;;;3.22;72.64;103368.63;5036710;28;20360;-73
2022/01/11 10:55:33;;;;;;;0.30;0.30;;;;;;;3.25;72.34;103372.44;5038163;28;20109;-73
2022/01/11 10:58:04;;;;;;;0.40;0.40;;;;;;;3.37;72.65;103364.97;5037811;28;20114;-73
2022/01/11 11:00:47;;;;;;;0.40;0.40;;;;;;;3.44;72.41;103375.19;5035885;28;20028;-73
2022/01/11 11:03:16;;;;;;;0.40;0.40;;;;;;;3.38;72.17;103366.84;5019012;28;20030;-73
2022/01/11 11:06:07;;;;;;;0.40;0.40;;;;;;;3.48;71.68;103372.91;5025104;28;20515;-73
2022/01/11 11:08:44;;;;;;;0.40;0.40;;;;;;;3.60;70.20;103368.91;5038571;28;20396;-74
2022/01/11 11:11:43;;;;;;;0.40;0.40;;;;;;;3.74;70.26;103371.94;5037180;28;20111;-79
2022/01/11 11:14:09;;;;;;;0.40;0.40;;;;;;;3.86;69.96;103370.50;5037360;28;20040;-75
2022/01/11 11:16:44;;;;;;;0.30;0.30;;;;;;;4.07;69.78;103379.47;5037358;28;20029;-74
2022/01/11 11:19:10;;;;;;;0.38;0.38;;;;;;;4.12;69.25;103374.72;5037299;28;20022;-74
2022/01/11 11:21:38;;;;;;;0.50;0.50;;;;;;;4.25;68.35;103380.28;5036857;28;20049;-73
2022/01/11 11:24:23;;;;;;;0.50;0.50;;;;;;;4.64;67.86;103386.50;5020752;28;20337;-74
2022/01/11 11:26:50;;;;;;;0.50;0.50;;;;;;;4.61;67.49;103386.19;5036772;28;20403;-74
2022/01/11 11:29:17;;;;;;;0.50;0.50;;;;;;;4.54;67.46;103378.59;5035266;28;20339;-74